createdAt,value
2018-01-11T07:35:24.729Z,50.4
2018-01-11T07:52:11.335Z,50.4
2018-01-11T08:08:58.142Z,50.4
2018-01-11T08:25:45.823Z,50.4
2018-01-11T08:42:32.539Z,50.4
2018-01-11T08:59:19.951Z,50.4
2018-01-11T09:16:07.272Z,50.4
2018-01-11T09:32:54.654Z,50.4
2018-01-11T09:49:42.060Z,51.2
2018-01-11T10:06:29.556Z,50.8
2018-01-11T10:23:17.382Z,50.8
2018-01-11T10:40:05.517Z,51.2
2018-01-11T10:56:53.584Z,51.2
2018-01-11T11:13:41.819Z,51.2
2018-01-11T11:30:30.141Z,51.2
2018-01-11T11:47:18.450Z,51.2
2018-01-11T12:04:06.571Z,51.2
2018-01-11T12:20:55.206Z,51.2
2018-01-11T12:37:42.777Z,51.2
2018-01-11T12:54:30.963Z,51.2
2018-01-11T13:11:20.262Z,51.2
2018-01-11T13:28:07.383Z,51.2
2018-01-11T13:44:55.589Z,51.2
2018-01-11T14:01:44.500Z,51.2
2018-01-11T14:18:33.243Z,51.2
2018-01-11T14:35:20.616Z,51.6
2018-01-11T14:52:08.914Z,51.2
2018-01-11T15:08:57.201Z,51.2
2018-01-11T15:25:44.989Z,51.2
2018-01-11T15:42:32.576Z,51.2
2018-01-11T15:59:20.169Z,51.6
2018-01-11T16:16:07.731Z,51.6
2018-01-11T16:32:55.250Z,52.4
2018-01-11T16:49:42.878Z,52.0
2018-01-11T17:06:30.482Z,52.8
2018-01-11T17:23:18.128Z,52.8
2018-01-11T17:40:05.828Z,52.8
2018-01-11T17:56:53.426Z,52.4
2018-01-11T18:13:40.940Z,52.4
2018-01-11T18:30:28.319Z,52.4
2018-01-11T18:47:16.182Z,53.2
2018-01-11T19:04:03.450Z,52.8
2018-01-11T19:20:51.010Z,53.2
2018-01-11T19:37:38.728Z,53.2
2018-01-11T19:54:26.382Z,53.2
2018-01-11T20:11:14.063Z,53.2
2018-01-11T20:28:01.627Z,53.2
2018-01-11T20:44:49.171Z,53.6
2018-01-11T21:01:36.642Z,53.6
2018-01-11T21:18:24.280Z,53.6
2018-01-11T21:35:11.834Z,53.6
2018-01-11T21:51:59.368Z,53.6
2018-01-11T22:08:46.652Z,54.0
2018-01-11T22:25:34.067Z,54.0
2018-01-11T22:42:21.404Z,54.0
2018-01-11T22:59:08.815Z,54.4
2018-01-11T23:15:56.478Z,54.4
2018-01-11T23:32:43.670Z,54.4
2018-01-11T23:49:31.088Z,54.4
